Temperatura si umiditatea in Oradea

<< Aprilie 2018 >>
L M Mi J V S D
            1
2 3 4 5 6 7 8
9 10 11 12 13 14 15
16 17 18 19 20 21 22
23 24 25 26 27 28 29
30            

Temperatura si umiditatea in Oradea la data de 23.04.2018
Ora Temperatura Umiditatea Presiunea
00:00 17.4 °C (17.4) 67 % 1.014 bar
00:30 16.6 °C (16.6) 68 % 1.014 bar
01:00 16.2 °C (16.2) 70 % 1.014 bar
01:30 15.9 °C (15.9) 71 % 1.014 bar
02:00 15.7 °C (15.7) 72 % 1.014 bar
02:30 15.5 °C (15.5) 73 % 1.014 bar
03:00 15.5 °C (15.5) 72 % 1.014 bar
03:30 15.4 °C (15.4) 72 % 1.014 bar
04:00 15.1 °C (15.1) 73 % 1.013 bar
04:30 14.5 °C (14.5) 75 % 1.013 bar
05:00 14.3 °C (14.3) 75 % 1.013 bar
05:30 13.9 °C (13.9) 75 % 1.013 bar
06:00 13.7 °C (13.7) 76 % 1.013 bar
06:30 13.6 °C (13.6) 75 % 1.014 bar
07:00 13.7 °C (13.7) 74 % 1.014 bar
07:30 14.4 °C (14.4) 73 % 1.013 bar
08:00 16.4 °C (16.4) 68 % 1.014 bar
 
Ora Temperatura Umiditatea Presiunea
08:30 19.7 °C (19.7) 57 % 1.014 bar
09:00 21.8 °C (25.0) 51 % 1.014 bar
09:30 21.1 °C (21.1) 49 % 1.014 bar
10:00 20.8 °C (20.8) 51 % 1.014 bar
10:30 21.0 °C (21.0) 51 % 1.014 bar
11:00 22.7 °C (25.0) 49 % 1.015 bar
11:30 22.7 °C (25.0) 49 % 1.015 bar
12:00 22.7 °C (25.0) 49 % 1.015 bar
12:30 22.7 °C (25.0) 49 % 1.015 bar
13:00 22.7 °C (25.0) 49 % 1.015 bar
13:30 22.7 °C (25.0) 49 % 1.015 bar
14:00 22.7 °C (25.0) 49 % 1.015 bar
14:30 30.7 °C (30.0) 35 % 1.014 bar
15:00 32.4 °C (31.0) 29 % 1.014 bar
15:30 31.8 °C (31.0) 31 % 1.014 bar
16:00 32.4 °C (31.0) 25 % 1.014 bar